sensor_id;sensor_type;location;lat;lon;timestamp;temperature;humidity
22319;DHT22;11327;52.334;9.506;2022-11-20T00:02:11;-3.00;99.90
22319;DHT22;11327;52.334;9.506;2022-11-20T00:05:32;-3.00;99.90
22319;DHT22;11327;52.334;9.506;2022-11-20T00:08:55;-3.00;99.90
22319;DHT22;11327;52.334;9.506;2022-11-20T00:12:17;-3.00;99.90
22319;DHT22;11327;52.334;9.506;2022-11-20T00:15:38;-3.00;99.90
22319;DHT22;11327;52.334;9.506;2022-11-20T00:18:59;-3.00;99.90
22319;DHT22;11327;52.334;9.506;2022-11-20T00:22:20;-3.10;99.90
22319;DHT22;11327;52.334;9.506;2022-11-20T00:25:41;-3.10;99.90
22319;DHT22;11327;52.334;9.506;2022-11-20T00:29:02;-3.10;99.90
22319;DHT22;11327;52.334;9.506;2022-11-20T00:32:23;-3.10;99.90
22319;DHT22;11327;52.334;9.506;2022-11-20T00:35:44;-3.10;99.90
22319;DHT22;11327;52.334;9.506;2022-11-20T00:39:05;-3.10;99.90
22319;DHT22;11327;52.334;9.506;2022-11-20T00:42:26;-3.10;99.90
22319;DHT22;11327;52.334;9.506;2022-11-20T00:45:47;-3.10;99.90
22319;DHT22;11327;52.334;9.506;2022-11-20T00:49:08;-3.10;99.90
22319;DHT22;11327;52.334;9.506;2022-11-20T00:52:29;-3.10;99.90
22319;DHT22;11327;52.334;9.506;2022-11-20T00:56:00;-3.10;99.90
22319;DHT22;11327;52.334;9.506;2022-11-20T00:59:22;-3.10;99.90
22319;DHT22;11327;52.334;9.506;2022-11-20T01:02:43;-3.10;99.90
22319;DHT22;11327;52.334;9.506;2022-11-20T01:06:12;-3.10;99.90
22319;DHT22;11327;52.334;9.506;2022-11-20T01:09:33;-3.20;99.90
22319;DHT22;11327;52.334;9.506;2022-11-20T01:12:54;-3.20;99.90
22319;DHT22;11327;52.334;9.506;2022-11-20T01:16:37;-3.20;99.90
22319;DHT22;11327;52.334;9.506;2022-11-20T01:19:58;-3.20;99.90
22319;DHT22;11327;52.334;9.506;2022-11-20T01:23:19;-3.20;99.90
22319;DHT22;11327;52.334;9.506;2022-11-20T01:26:41;-3.20;99.90
22319;DHT22;11327;52.334;9.506;2022-11-20T01:30:03;-3.20;99.90
22319;DHT22;11327;52.334;9.506;2022-11-20T01:33:24;-3.20;99.90
22319;DHT22;11327;52.334;9.506;2022-11-20T01:36:45;-3.20;99.90
22319;DHT22;11327;52.334;9.506;2022-11-20T01:40:07;-3.20;99.90
22319;DHT22;11327;52.334;9.506;2022-11-20T01:43:28;-3.20;99.90
22319;DHT22;11327;52.334;9.506;2022-11-20T01:47:03;-3.30;99.90
22319;DHT22;11327;52.334;9.506;2022-11-20T01:50:27;-3.30;99.90
22319;DHT22;11327;52.334;9.506;2022-11-20T01:53:55;-3.30;99.90
22319;DHT22;11327;52.334;9.506;2022-11-20T01:57:20;-3.40;99.90
22319;DHT22;11327;52.334;9.506;2022-11-20T02:00:41;-3.40;99.90
22319;DHT22;11327;52.334;9.506;2022-11-20T02:04:03;-3.40;99.90
22319;DHT22;11327;52.334;9.506;2022-11-20T02:07:24;-3.30;99.90
22319;DHT22;11327;52.334;9.506;2022-11-20T02:10:45;-3.30;99.90
22319;DHT22;11327;52.334;9.506;2022-11-20T02:14:06;-3.40;99.90
22319;DHT22;11327;52.334;9.506;2022-11-20T02:17:27;-3.30;99.90
22319;DHT22;11327;52.334;9.506;2022-11-20T02:20:53;-3.30;99.90
22319;DHT22;11327;52.334;9.506;2022-11-20T02:24:18;-3.30;99.90
22319;DHT22;11327;52.334;9.506;2022-11-20T02:27:39;-3.30;99.90
22319;DHT22;11327;52.334;9.506;2022-11-20T02:31:01;-3.20;99.90
22319;DHT22;11327;52.334;9.506;2022-11-20T02:34:22;-3.20;99.90
22319;DHT22;11327;52.334;9.506;2022-11-20T02:37:43;-3.20;99.90
22319;DHT22;11327;52.334;9.506;2022-11-20T02:41:05;-3.10;99.90
22319;DHT22;11327;52.334;9.506;2022-11-20T02:44:25;-3.20;99.90
22319;DHT22;11327;52.334;9.506;2022-11-20T02:47:46;-3.20;99.90
22319;DHT22;11327;52.334;9.506;2022-11-20T02:51:07;-3.20;99.90
22319;DHT22;11327;52.334;9.506;2022-11-20T02:54:28;-3.20;99.90
22319;DHT22;11327;52.334;9.506;2022-11-20T02:57:49;-3.20;99.90
22319;DHT22;11327;52.334;9.506;2022-11-20T03:01:10;-3.20;99.90
22319;DHT22;11327;52.334;9.506;2022-11-20T03:04:31;-3.20;99.90
22319;DHT22;11327;52.334;9.506;2022-11-20T03:07:52;-3.20;99.90
22319;DHT22;11327;52.334;9.506;2022-11-20T03:11:13;-3.10;99.90
22319;DHT22;11327;52.334;9.506;2022-11-20T03:14:34;-3.10;99.90
22319;DHT22;11327;52.334;9.506;2022-11-20T03:17:55;-3.10;99.90
22319;DHT22;11327;52.334;9.506;2022-11-20T03:21:16;-3.10;99.90
22319;DHT22;11327;52.334;9.506;2022-11-20T03:24:37;-3.00;99.90
22319;DHT22;11327;52.334;9.506;2022-11-20T03:27:58;-3.00;99.90
22319;DHT22;11327;52.334;9.506;2022-11-20T03:31:21;-3.00;99.90
22319;DHT22;11327;52.334;9.506;2022-11-20T03:34:43;-3.00;99.90
22319;DHT22;11327;52.334;9.506;2022-11-20T03:38:04;-3.00;99.90
22319;DHT22;11327;52.334;9.506;2022-11-20T03:41:30;-3.00;99.90
22319;DHT22;11327;52.334;9.506;2022-11-20T03:44:51;-3.00;99.90
22319;DHT22;11327;52.334;9.506;2022-11-20T03:48:12;-3.00;99.90
22319;DHT22;11327;52.334;9.506;2022-11-20T03:51:34;-3.00;99.90
22319;DHT22;11327;52.334;9.506;2022-11-20T03:54:56;-3.10;99.90
22319;DHT22;11327;52.334;9.506;2022-11-20T03:58:17;-3.00;99.90
22319;DHT22;11327;52.334;9.506;2022-11-20T04:01:38;-3.00;99.90
22319;DHT22;11327;52.334;9.506;2022-11-20T04:04:59;-3.00;99.90
22319;DHT22;11327;52.334;9.506;2022-11-20T04:08:20;-3.00;99.90
22319;DHT22;11327;52.334;9.506;2022-11-20T04:11:41;-3.00;99.90
22319;DHT22;11327;52.334;9.506;2022-11-20T04:15:02;-3.00;99.90
22319;DHT22;11327;52.334;9.506;2022-11-20T04:18:23;-3.00;99.90
22319;DHT22;11327;52.334;9.506;2022-11-20T04:21:44;-3.10;99.90
22319;DHT22;11327;52.334;9.506;2022-11-20T04:25:06;-3.10;99.90
22319;DHT22;11327;52.334;9.506;2022-11-20T04:28:27;-3.10;99.90
22319;DHT22;11327;52.334;9.506;2022-11-20T04:31:48;-3.10;99.90
22319;DHT22;11327;52.334;9.506;2022-11-20T04:35:09;-3.10;99.90
22319;DHT22;11327;52.334;9.506;2022-11-20T04:38:30;-3.00;99.90
22319;DHT22;11327;52.334;9.506;2022-11-20T04:41:51;-3.00;99.90
22319;DHT22;11327;52.334;9.506;2022-11-20T04:45:14;-3.00;99.90
22319;DHT22;11327;52.334;9.506;2022-11-20T04:48:34;-2.90;99.90
22319;DHT22;11327;52.334;9.506;2022-11-20T04:51:55;-2.90;99.90
22319;DHT22;11327;52.334;9.506;2022-11-20T04:55:16;-2.90;99.90
22319;DHT22;11327;52.334;9.506;2022-11-20T04:58:38;-2.80;99.90
22319;DHT22;11327;52.334;9.506;2022-11-20T05:01:59;-2.80;99.90
22319;DHT22;11327;52.334;9.506;2022-11-20T05:05:20;-2.80;99.90
22319;DHT22;11327;52.334;9.506;2022-11-20T05:08:41;-2.80;99.90
22319;DHT22;11327;52.334;9.506;2022-11-20T05:12:03;-2.70;99.90
22319;DHT22;11327;52.334;9.506;2022-11-20T05:15:24;-2.70;99.90
22319;DHT22;11327;52.334;9.506;2022-11-20T05:18:45;-2.70;99.90
22319;DHT22;11327;52.334;9.506;2022-11-20T05:22:06;-2.60;99.90
22319;DHT22;11327;52.334;9.506;2022-11-20T05:25:27;-2.60;99.90
22319;DHT22;11327;52.334;9.506;2022-11-20T05:28:49;-2.50;99.90
22319;DHT22;11327;52.334;9.506;2022-11-20T05:32:10;-2.50;99.90
22319;DHT22;11327;52.334;9.506;2022-11-20T05:35:31;-2.50;99.90
22319;DHT22;11327;52.334;9.506;2022-11-20T05:38:51;-2.40;99.90
22319;DHT22;11327;52.334;9.506;2022-11-20T05:42:12;-2.40;99.90
22319;DHT22;11327;52.334;9.506;2022-11-20T05:45:53;-2.40;99.90
22319;DHT22;11327;52.334;9.506;2022-11-20T05:49:14;-2.40;99.90
22319;DHT22;11327;52.334;9.506;2022-11-20T05:52:35;-2.30;99.90
22319;DHT22;11327;52.334;9.506;2022-11-20T05:56:02;-2.20;99.90
22319;DHT22;11327;52.334;9.506;2022-11-20T05:59:23;-2.20;99.90
22319;DHT22;11327;52.334;9.506;2022-11-20T06:02:44;-2.20;99.90
22319;DHT22;11327;52.334;9.506;2022-11-20T06:06:06;-2.10;99.90
22319;DHT22;11327;52.334;9.506;2022-11-20T06:09:27;-2.10;99.90
22319;DHT22;11327;52.334;9.506;2022-11-20T06:12:48;-2.10;99.90
22319;DHT22;11327;52.334;9.506;2022-11-20T06:16:10;-2.10;99.90
22319;DHT22;11327;52.334;9.506;2022-11-20T06:19:31;-2.10;99.90
22319;DHT22;11327;52.334;9.506;2022-11-20T06:22:52;-2.00;99.90
22319;DHT22;11327;52.334;9.506;2022-11-20T06:26:26;-2.00;99.90
22319;DHT22;11327;52.334;9.506;2022-11-20T06:29:43;-2.00;99.90
22319;DHT22;11327;52.334;9.506;2022-11-20T06:33:04;-1.90;99.90
22319;DHT22;11327;52.334;9.506;2022-11-20T06:36:25;-2.00;99.90
22319;DHT22;11327;52.334;9.506;2022-11-20T06:39:46;-2.10;99.90
22319;DHT22;11327;52.334;9.506;2022-11-20T06:43:09;-2.10;99.90
22319;DHT22;11327;52.334;9.506;2022-11-20T06:46:31;-2.00;99.90
22319;DHT22;11327;52.334;9.506;2022-11-20T06:49:52;-2.00;99.90
22319;DHT22;11327;52.334;9.506;2022-11-20T06:53:13;-2.00;99.90
22319;DHT22;11327;52.334;9.506;2022-11-20T06:56:34;-1.90;99.90
22319;DHT22;11327;52.334;9.506;2022-11-20T06:59:55;-2.00;99.90
22319;DHT22;11327;52.334;9.506;2022-11-20T07:03:16;-2.00;99.90
22319;DHT22;11327;52.334;9.506;2022-11-20T07:06:37;-1.90;99.90
22319;DHT22;11327;52.334;9.506;2022-11-20T07:09:58;-1.90;99.90
22319;DHT22;11327;52.334;9.506;2022-11-20T07:13:19;-1.90;99.90
22319;DHT22;11327;52.334;9.506;2022-11-20T07:16:40;-1.80;99.90
22319;DHT22;11327;52.334;9.506;2022-11-20T07:20:00;-1.80;99.90
22319;DHT22;11327;52.334;9.506;2022-11-20T07:23:21;-1.80;99.90
22319;DHT22;11327;52.334;9.506;2022-11-20T07:26:42;-1.80;99.90
22319;DHT22;11327;52.334;9.506;2022-11-20T07:30:06;-1.70;99.90
22319;DHT22;11327;52.334;9.506;2022-11-20T07:33:27;-1.70;99.90
22319;DHT22;11327;52.334;9.506;2022-11-20T07:36:48;-1.60;99.90
22319;DHT22;11327;52.334;9.506;2022-11-20T07:40:10;-1.60;99.90
22319;DHT22;11327;52.334;9.506;2022-11-20T07:43:31;-1.60;99.90
22319;DHT22;11327;52.334;9.506;2022-11-20T07:46:52;-1.60;99.90
22319;DHT22;11327;52.334;9.506;2022-11-20T07:50:14;-1.50;99.90
22319;DHT22;11327;52.334;9.506;2022-11-20T07:53:35;-1.50;99.90
22319;DHT22;11327;52.334;9.506;2022-11-20T07:56:56;-1.40;99.90
22319;DHT22;11327;52.334;9.506;2022-11-20T08:00:17;-1.40;99.90
22319;DHT22;11327;52.334;9.506;2022-11-20T08:03:38;-1.40;99.90
22319;DHT22;11327;52.334;9.506;2022-11-20T08:06:59;-1.40;99.90
22319;DHT22;11327;52.334;9.506;2022-11-20T08:10:20;-1.30;99.90
22319;DHT22;11327;52.334;9.506;2022-11-20T08:13:40;-1.30;99.90
22319;DHT22;11327;52.334;9.506;2022-11-20T08:17:20;-1.30;99.90
22319;DHT22;11327;52.334;9.506;2022-11-20T08:20:41;-1.10;99.90
22319;DHT22;11327;52.334;9.506;2022-11-20T08:24:02;-1.10;99.90
22319;DHT22;11327;52.334;9.506;2022-11-20T08:27:23;-1.10;99.90
22319;DHT22;11327;52.334;9.506;2022-11-20T08:30:44;-1.20;99.90
22319;DHT22;11327;52.334;9.506;2022-11-20T08:34:06;-1.10;99.90
22319;DHT22;11327;52.334;9.506;2022-11-20T08:37:27;-1.10;99.90
22319;DHT22;11327;52.334;9.506;2022-11-20T08:40:48;-1.10;99.90
22319;DHT22;11327;52.334;9.506;2022-11-20T08:44:11;-1.00;99.90
22319;DHT22;11327;52.334;9.506;2022-11-20T08:47:32;-0.90;99.90
22319;DHT22;11327;52.334;9.506;2022-11-20T08:50:53;-0.90;99.90
22319;DHT22;11327;52.334;9.506;2022-11-20T08:54:13;-0.90;99.90
22319;DHT22;11327;52.334;9.506;2022-11-20T08:57:35;-0.90;99.90
22319;DHT22;11327;52.334;9.506;2022-11-20T09:00:57;-0.80;99.90
22319;DHT22;11327;52.334;9.506;2022-11-20T09:04:18;-0.80;99.90
22319;DHT22;11327;52.334;9.506;2022-11-20T09:07:39;-0.70;99.90
22319;DHT22;11327;52.334;9.506;2022-11-20T09:11:02;-0.70;99.90
22319;DHT22;11327;52.334;9.506;2022-11-20T09:14:23;-0.60;99.90
22319;DHT22;11327;52.334;9.506;2022-11-20T09:21:15;-0.50;99.90
22319;DHT22;11327;52.334;9.506;2022-11-20T09:24:36;-0.40;99.90
22319;DHT22;11327;52.334;9.506;2022-11-20T09:27:58;-0.50;99.90
22319;DHT22;11327;52.334;9.506;2022-11-20T09:31:23;-0.40;99.90
22319;DHT22;11327;52.334;9.506;2022-11-20T09:34:44;-0.30;99.90
22319;DHT22;11327;52.334;9.506;2022-11-20T09:38:07;-0.20;99.90
22319;DHT22;11327;52.334;9.506;2022-11-20T09:45:23;0.00;99.90
22319;DHT22;11327;52.334;9.506;2022-11-20T09:56:03;0.40;99.90
22319;DHT22;11327;52.334;9.506;2022-11-20T09:59:43;0.60;99.90
22319;DHT22;11327;52.334;9.506;2022-11-20T10:03:11;0.70;99.90
22319;DHT22;11327;52.334;9.506;2022-11-20T10:06:36;0.90;99.90
22319;DHT22;11327;52.334;9.506;2022-11-20T10:09:55;1.00;99.90
22319;DHT22;11327;52.334;9.506;2022-11-20T10:13:27;1.10;99.90
22319;DHT22;11327;52.334;9.506;2022-11-20T10:20:30;1.20;99.90
22319;DHT22;11327;52.334;9.506;2022-11-20T10:31:25;1.40;99.90
22319;DHT22;11327;52.334;9.506;2022-11-20T10:38:18;1.30;99.90
22319;DHT22;11327;52.334;9.506;2022-11-20T10:41:40;1.40;99.90
22319;DHT22;11327;52.334;9.506;2022-11-20T10:48:48;1.30;99.90
22319;DHT22;11327;52.334;9.506;2022-11-20T10:55:54;1.30;99.90
22319;DHT22;11327;52.334;9.506;2022-11-20T11:02:54;1.30;99.90
22319;DHT22;11327;52.334;9.506;2022-11-20T11:06:35;1.30;99.90
22319;DHT22;11327;52.334;9.506;2022-11-20T11:09:56;1.40;99.90
22319;DHT22;11327;52.334;9.506;2022-11-20T11:13:22;1.50;99.90
22319;DHT22;11327;52.334;9.506;2022-11-20T11:16:53;1.60;99.90
22319;DHT22;11327;52.334;9.506;2022-11-20T11:20:23;1.60;99.90
22319;DHT22;11327;52.334;9.506;2022-11-20T11:23:44;1.70;99.90
22319;DHT22;11327;52.334;9.506;2022-11-20T11:27:14;1.80;99.90
22319;DHT22;11327;52.334;9.506;2022-11-20T11:30:42;1.80;99.90
22319;DHT22;11327;52.334;9.506;2022-11-20T11:34:12;1.90;99.90
22319;DHT22;11327;52.334;9.506;2022-11-20T11:37:35;2.00;99.90
22319;DHT22;11327;52.334;9.506;2022-11-20T11:40:57;2.00;99.90
22319;DHT22;11327;52.334;9.506;2022-11-20T11:44:24;2.00;99.90
22319;DHT22;11327;52.334;9.506;2022-11-20T11:48:07;2.00;99.90
22319;DHT22;11327;52.334;9.506;2022-11-20T11:55:17;1.90;99.90
22319;DHT22;11327;52.334;9.506;2022-11-20T11:58:50;2.00;99.90
22319;DHT22;11327;52.334;9.506;2022-11-20T12:02:29;2.00;99.90
22319;DHT22;11327;52.334;9.506;2022-11-20T12:05:55;2.10;99.90
22319;DHT22;11327;52.334;9.506;2022-11-20T12:09:16;2.20;99.90
22319;DHT22;11327;52.334;9.506;2022-11-20T12:12:41;2.30;99.90
22319;DHT22;11327;52.334;9.506;2022-11-20T12:16:04;2.50;99.90
22319;DHT22;11327;52.334;9.506;2022-11-20T12:19:26;2.60;99.90
22319;DHT22;11327;52.334;9.506;2022-11-20T12:27:21;2.70;99.90
22319;DHT22;11327;52.334;9.506;2022-11-20T12:30:08;2.70;99.90
22319;DHT22;11327;52.334;9.506;2022-11-20T12:41:11;2.60;99.90
22319;DHT22;11327;52.334;9.506;2022-11-20T12:51:58;2.50;99.90
22319;DHT22;11327;52.334;9.506;2022-11-20T13:02:29;2.60;99.90
22319;DHT22;11327;52.334;9.506;2022-11-20T13:09:20;2.70;99.90
22319;DHT22;11327;52.334;9.506;2022-11-20T13:12:51;2.90;99.90
22319;DHT22;11327;52.334;9.506;2022-11-20T13:16:15;2.80;99.90
22319;DHT22;11327;52.334;9.506;2022-11-20T13:19:35;2.80;99.90
22319;DHT22;11327;52.334;9.506;2022-11-20T13:22:56;2.80;99.90
22319;DHT22;11327;52.334;9.506;2022-11-20T13:26:23;2.70;99.90
22319;DHT22;11327;52.334;9.506;2022-11-20T13:29:45;2.70;99.90
22319;DHT22;11327;52.334;9.506;2022-11-20T13:33:09;2.70;99.90
22319;DHT22;11327;52.334;9.506;2022-11-20T13:36:31;2.70;99.90
22319;DHT22;11327;52.334;9.506;2022-11-20T13:39:53;2.70;99.90
22319;DHT22;11327;52.334;9.506;2022-11-20T13:43:19;2.80;99.90
22319;DHT22;11327;52.334;9.506;2022-11-20T13:46:43;2.80;99.90
22319;DHT22;11327;52.334;9.506;2022-11-20T13:50:08;2.80;99.90
22319;DHT22;11327;52.334;9.506;2022-11-20T14:01:00;2.80;99.90
22319;DHT22;11327;52.334;9.506;2022-11-20T14:04:32;2.80;99.90
22319;DHT22;11327;52.334;9.506;2022-11-20T14:07:53;2.70;99.90
22319;DHT22;11327;52.334;9.506;2022-11-20T14:11:23;2.70;99.90
22319;DHT22;11327;52.334;9.506;2022-11-20T14:14:47;2.70;99.90
22319;DHT22;11327;52.334;9.506;2022-11-20T14:18:25;2.70;99.90
22319;DHT22;11327;52.334;9.506;2022-11-20T14:21:37;2.70;99.90
22319;DHT22;11327;52.334;9.506;2022-11-20T14:28:36;2.60;99.90
22319;DHT22;11327;52.334;9.506;2022-11-20T14:31:57;2.60;99.90
22319;DHT22;11327;52.334;9.506;2022-11-20T14:35:24;2.50;99.90
22319;DHT22;11327;52.334;9.506;2022-11-20T14:38:42;2.50;99.90
22319;DHT22;11327;52.334;9.506;2022-11-20T14:42:19;2.40;99.90
22319;DHT22;11327;52.334;9.506;2022-11-20T14:45:40;2.30;99.90
22319;DHT22;11327;52.334;9.506;2022-11-20T14:49:01;2.20;99.90
22319;DHT22;11327;52.334;9.506;2022-11-20T14:52:26;2.20;99.90
22319;DHT22;11327;52.334;9.506;2022-11-20T14:55:54;2.10;99.90
22319;DHT22;11327;52.334;9.506;2022-11-20T14:59:21;2.00;99.90
22319;DHT22;11327;52.334;9.506;2022-11-20T15:02:41;2.00;99.90
22319;DHT22;11327;52.334;9.506;2022-11-20T15:06:04;2.00;99.90
22319;DHT22;11327;52.334;9.506;2022-11-20T15:09:25;1.90;99.90
22319;DHT22;11327;52.334;9.506;2022-11-20T15:13:01;1.80;99.90
22319;DHT22;11327;52.334;9.506;2022-11-20T15:16:23;1.70;99.90
22319;DHT22;11327;52.334;9.506;2022-11-20T15:19:45;1.70;99.90
22319;DHT22;11327;52.334;9.506;2022-11-20T15:23:11;1.60;99.90
22319;DHT22;11327;52.334;9.506;2022-11-20T15:26:34;1.50;99.90
22319;DHT22;11327;52.334;9.506;2022-11-20T15:29:55;1.50;99.90
22319;DHT22;11327;52.334;9.506;2022-11-20T15:33:17;1.50;99.90
22319;DHT22;11327;52.334;9.506;2022-11-20T15:36:40;1.50;99.90
22319;DHT22;11327;52.334;9.506;2022-11-20T15:40:01;1.40;99.90
22319;DHT22;11327;52.334;9.506;2022-11-20T15:43:22;1.30;99.90
22319;DHT22;11327;52.334;9.506;2022-11-20T15:46:43;1.30;99.90
22319;DHT22;11327;52.334;9.506;2022-11-20T15:50:10;1.30;99.90
22319;DHT22;11327;52.334;9.506;2022-11-20T15:53:31;1.20;99.90
22319;DHT22;11327;52.334;9.506;2022-11-20T15:56:52;1.10;99.90
22319;DHT22;11327;52.334;9.506;2022-11-20T16:00:14;1.10;99.90
22319;DHT22;11327;52.334;9.506;2022-11-20T16:03:35;1.10;99.90
22319;DHT22;11327;52.334;9.506;2022-11-20T16:06:56;1.00;99.90
22319;DHT22;11327;52.334;9.506;2022-11-20T16:10:17;1.00;99.90
22319;DHT22;11327;52.334;9.506;2022-11-20T16:13:38;0.90;99.90
22319;DHT22;11327;52.334;9.506;2022-11-20T16:17:17;0.90;99.90
22319;DHT22;11327;52.334;9.506;2022-11-20T16:20:40;0.90;99.90
22319;DHT22;11327;52.334;9.506;2022-11-20T16:24:04;0.80;99.90
22319;DHT22;11327;52.334;9.506;2022-11-20T16:27:25;0.80;99.90
22319;DHT22;11327;52.334;9.506;2022-11-20T16:30:46;0.80;99.90
22319;DHT22;11327;52.334;9.506;2022-11-20T16:34:07;0.70;99.90
22319;DHT22;11327;52.334;9.506;2022-11-20T16:37:28;0.70;99.90
22319;DHT22;11327;52.334;9.506;2022-11-20T16:40:49;0.70;99.90
22319;DHT22;11327;52.334;9.506;2022-11-20T16:44:10;0.70;99.90
22319;DHT22;11327;52.334;9.506;2022-11-20T16:47:34;0.70;99.90
22319;DHT22;11327;52.334;9.506;2022-11-20T16:50:55;0.60;99.90
22319;DHT22;11327;52.334;9.506;2022-11-20T16:54:16;0.60;99.90
22319;DHT22;11327;52.334;9.506;2022-11-20T16:57:37;0.60;99.90
22319;DHT22;11327;52.334;9.506;2022-11-20T17:01:11;0.60;99.90
22319;DHT22;11327;52.334;9.506;2022-11-20T17:04:30;0.60;99.90
22319;DHT22;11327;52.334;9.506;2022-11-20T17:07:51;0.50;99.90
22319;DHT22;11327;52.334;9.506;2022-11-20T17:11:17;0.50;99.90
22319;DHT22;11327;52.334;9.506;2022-11-20T17:14:38;0.50;99.90
22319;DHT22;11327;52.334;9.506;2022-11-20T17:17:59;0.50;99.90
22319;DHT22;11327;52.334;9.506;2022-11-20T17:21:22;0.50;99.90
22319;DHT22;11327;52.334;9.506;2022-11-20T17:24:43;0.40;99.90
22319;DHT22;11327;52.334;9.506;2022-11-20T17:28:04;0.40;99.90
22319;DHT22;11327;52.334;9.506;2022-11-20T17:31:27;0.40;99.90
22319;DHT22;11327;52.334;9.506;2022-11-20T17:34:48;0.40;99.90
22319;DHT22;11327;52.334;9.506;2022-11-20T17:38:09;0.40;99.90
22319;DHT22;11327;52.334;9.506;2022-11-20T17:41:30;0.40;99.90
22319;DHT22;11327;52.334;9.506;2022-11-20T17:44:51;0.40;99.90
22319;DHT22;11327;52.334;9.506;2022-11-20T17:48:12;0.40;99.90
22319;DHT22;11327;52.334;9.506;2022-11-20T17:51:33;0.40;99.90
22319;DHT22;11327;52.334;9.506;2022-11-20T17:54:54;0.40;99.90
22319;DHT22;11327;52.334;9.506;2022-11-20T17:58:17;0.40;99.90
22319;DHT22;11327;52.334;9.506;2022-11-20T18:01:39;0.40;99.90
22319;DHT22;11327;52.334;9.506;2022-11-20T18:05:02;0.40;99.90
22319;DHT22;11327;52.334;9.506;2022-11-20T18:08:23;0.40;99.90
22319;DHT22;11327;52.334;9.506;2022-11-20T18:11:46;0.40;99.90
22319;DHT22;11327;52.334;9.506;2022-11-20T18:15:07;0.40;99.90
22319;DHT22;11327;52.334;9.506;2022-11-20T18:18:28;0.40;99.90
22319;DHT22;11327;52.334;9.506;2022-11-20T18:21:49;0.40;99.90
22319;DHT22;11327;52.334;9.506;2022-11-20T18:25:10;0.50;99.90
22319;DHT22;11327;52.334;9.506;2022-11-20T18:28:31;0.50;99.90
22319;DHT22;11327;52.334;9.506;2022-11-20T18:31:53;0.50;99.90
22319;DHT22;11327;52.334;9.506;2022-11-20T18:35:15;0.50;99.90
22319;DHT22;11327;52.334;9.506;2022-11-20T18:38:36;0.50;99.90
22319;DHT22;11327;52.334;9.506;2022-11-20T18:42:00;0.50;99.90
22319;DHT22;11327;52.334;9.506;2022-11-20T18:45:40;0.50;99.90
22319;DHT22;11327;52.334;9.506;2022-11-20T18:49:00;0.50;99.90
22319;DHT22;11327;52.334;9.506;2022-11-20T18:52:27;0.50;99.90
22319;DHT22;11327;52.334;9.506;2022-11-20T18:55:46;0.50;99.90
22319;DHT22;11327;52.334;9.506;2022-11-20T18:59:08;0.50;99.90
22319;DHT22;11327;52.334;9.506;2022-11-20T19:02:29;0.50;99.90
22319;DHT22;11327;52.334;9.506;2022-11-20T19:05:50;0.50;99.90
22319;DHT22;11327;52.334;9.506;2022-11-20T19:09:12;0.50;99.90
22319;DHT22;11327;52.334;9.506;2022-11-20T19:12:33;0.50;99.90
22319;DHT22;11327;52.334;9.506;2022-11-20T19:15:54;0.50;99.90
22319;DHT22;11327;52.334;9.506;2022-11-20T19:19:15;0.50;99.90
22319;DHT22;11327;52.334;9.506;2022-11-20T19:22:36;0.50;99.90
22319;DHT22;11327;52.334;9.506;2022-11-20T19:26:00;0.60;99.90
22319;DHT22;11327;52.334;9.506;2022-11-20T19:29:22;0.60;99.90
22319;DHT22;11327;52.334;9.506;2022-11-20T19:32:43;0.60;99.90
22319;DHT22;11327;52.334;9.506;2022-11-20T19:36:15;0.60;99.90
22319;DHT22;11327;52.334;9.506;2022-11-20T19:39:37;0.60;99.90
22319;DHT22;11327;52.334;9.506;2022-11-20T19:42:58;0.60;99.90
22319;DHT22;11327;52.334;9.506;2022-11-20T19:46:19;0.60;99.90
22319;DHT22;11327;52.334;9.506;2022-11-20T19:49:41;0.50;99.90
22319;DHT22;11327;52.334;9.506;2022-11-20T19:53:02;0.60;99.90
22319;DHT22;11327;52.334;9.506;2022-11-20T19:56:24;0.60;99.90
22319;DHT22;11327;52.334;9.506;2022-11-20T19:59:45;0.60;99.90
22319;DHT22;11327;52.334;9.506;2022-11-20T20:03:06;0.60;99.90
22319;DHT22;11327;52.334;9.506;2022-11-20T20:06:27;0.60;99.90
22319;DHT22;11327;52.334;9.506;2022-11-20T20:09:49;0.60;99.90
22319;DHT22;11327;52.334;9.506;2022-11-20T20:13:10;0.60;99.90
22319;DHT22;11327;52.334;9.506;2022-11-20T20:16:31;0.70;99.90
22319;DHT22;11327;52.334;9.506;2022-11-20T20:19:52;0.70;99.90
22319;DHT22;11327;52.334;9.506;2022-11-20T20:23:13;0.70;99.90
22319;DHT22;11327;52.334;9.506;2022-11-20T20:26:34;0.60;99.90
22319;DHT22;11327;52.334;9.506;2022-11-20T20:29:55;0.70;99.90
22319;DHT22;11327;52.334;9.506;2022-11-20T20:33:16;0.70;99.90
22319;DHT22;11327;52.334;9.506;2022-11-20T20:36:37;0.70;99.90
22319;DHT22;11327;52.334;9.506;2022-11-20T20:39:58;0.70;99.90
22319;DHT22;11327;52.334;9.506;2022-11-20T20:43:19;0.70;99.90
22319;DHT22;11327;52.334;9.506;2022-11-20T20:46:40;0.70;99.90
22319;DHT22;11327;52.334;9.506;2022-11-20T20:50:02;0.70;99.90
22319;DHT22;11327;52.334;9.506;2022-11-20T20:53:24;0.70;99.90
22319;DHT22;11327;52.334;9.506;2022-11-20T20:56:45;0.70;99.90
22319;DHT22;11327;52.334;9.506;2022-11-20T21:00:07;0.80;99.90
22319;DHT22;11327;52.334;9.506;2022-11-20T21:03:28;0.80;99.90
22319;DHT22;11327;52.334;9.506;2022-11-20T21:06:49;0.70;99.90
22319;DHT22;11327;52.334;9.506;2022-11-20T21:10:10;0.70;99.90
22319;DHT22;11327;52.334;9.506;2022-11-20T21:13:32;0.70;99.90
22319;DHT22;11327;52.334;9.506;2022-11-20T21:16:53;0.70;99.90
22319;DHT22;11327;52.334;9.506;2022-11-20T21:20:14;0.70;99.90
22319;DHT22;11327;52.334;9.506;2022-11-20T21:23:54;0.70;99.90
22319;DHT22;11327;52.334;9.506;2022-11-20T21:27:15;0.70;99.90
22319;DHT22;11327;52.334;9.506;2022-11-20T21:30:36;0.70;99.90
22319;DHT22;11327;52.334;9.506;2022-11-20T21:33:57;0.70;99.90
22319;DHT22;11327;52.334;9.506;2022-11-20T21:37:18;0.70;99.90
22319;DHT22;11327;52.334;9.506;2022-11-20T21:40:39;0.70;99.90
22319;DHT22;11327;52.334;9.506;2022-11-20T21:44:01;0.70;99.90
22319;DHT22;11327;52.334;9.506;2022-11-20T21:47:24;0.70;99.90
22319;DHT22;11327;52.334;9.506;2022-11-20T21:50:45;0.70;99.90
22319;DHT22;11327;52.334;9.506;2022-11-20T21:54:07;0.60;99.90
22319;DHT22;11327;52.334;9.506;2022-11-20T21:57:33;0.60;99.90
22319;DHT22;11327;52.334;9.506;2022-11-20T22:00:55;0.60;99.90
22319;DHT22;11327;52.334;9.506;2022-11-20T22:04:16;0.60;99.90
22319;DHT22;11327;52.334;9.506;2022-11-20T22:07:37;0.70;99.90
22319;DHT22;11327;52.334;9.506;2022-11-20T22:11:00;0.70;99.90
22319;DHT22;11327;52.334;9.506;2022-11-20T22:14:21;0.70;99.90
22319;DHT22;11327;52.334;9.506;2022-11-20T22:17:42;0.60;99.90
22319;DHT22;11327;52.334;9.506;2022-11-20T22:21:24;0.70;99.90
22319;DHT22;11327;52.334;9.506;2022-11-20T22:24:45;0.70;99.90
22319;DHT22;11327;52.334;9.506;2022-11-20T22:28:06;0.70;99.90
22319;DHT22;11327;52.334;9.506;2022-11-20T22:31:28;0.60;99.90
22319;DHT22;11327;52.334;9.506;2022-11-20T22:34:49;0.70;99.90
22319;DHT22;11327;52.334;9.506;2022-11-20T22:38:10;0.70;99.90
22319;DHT22;11327;52.334;9.506;2022-11-20T22:41:32;0.70;99.90
22319;DHT22;11327;52.334;9.506;2022-11-20T22:44:53;0.70;99.90
22319;DHT22;11327;52.334;9.506;2022-11-20T22:48:14;0.70;99.90
22319;DHT22;11327;52.334;9.506;2022-11-20T22:51:39;0.70;99.90
22319;DHT22;11327;52.334;9.506;2022-11-20T22:55:00;0.70;99.90
22319;DHT22;11327;52.334;9.506;2022-11-20T22:58:21;0.70;99.90